Chevak, AK

9:12 AM AKST on February 22, 2017 (GMT -0900)
Chevak | | Change Station

Elev 75 ft 61.54 °N, 165.60 °W | Updated 16 minutes ago

Clear
Clear
-7 °F
Feels Like -30 °F
N
17
Wind Variable Wind from NE

Today
High -- | Low -- °F
--% Chance of Precip.
Yesterday
High -- | Low -- °F
Precip. -- in
Pressure 30.15 in
Visibility 10.0 miles
Clouds Clear
Windchill -30 °F
Dew Point -11 °F
Humidity 83%
Rainfall 0.00 in
Snow Depth Not available.
9:23 AM 7:09 PM
Waning Crescent, 16% visible
METAR PAVA 221756Z AUTO 05015KT 10SM CLR M22/M24 A3010 RMK AO2 SLP208 T12171239 11217 21228 53014 FZRANO
Pressure 30.15 in
Visibility 10.0 miles
Clouds Clear
Windchill -30 °F
Dew Point -11 °F
Humidity 83%
Rainfall 0.00 in
Snow Depth Not available.
9:23 AM 7:09 PM
Waning Crescent, 16% visible
METAR PAVA 221756Z AUTO 05015KT 10SM CLR M22/M24 A3010 RMK AO2 SLP208 T12171239 11217 21228 53014 FZRANO

Get Your Daily Forecast Email!

Thanks for signing up!

Be on the lookout for a verification email in your inbox.

You'll start receiving the daily forecast at 8 AM.

×

10-Day Weather Forecast

Almanac

Astronomy

Feb. 22, 2017 Rise Set
Actual Time
Civil Twilight
Nautical Twilight
Astronomical Twilight
Moon
Length of Visible Light
Length of Day
Tomorrow will be .
, % of the Moon is Illuminated

Today's Extremes

State Highs State Lows

Community

WunderPhotos

Upload Photos

1,962,540 photos uploaded!

WunderBlog® & News

Nearby

Air Quality

  Air Quality AQ Index Pollutant
Not available.

Snow Depth

Station Depth Elevation

Earthquake Activity

City Distance Mag. Time & Date
Minimum magnitude displayed is 2.5.

Coastal Water Temperatures

Place Temperature

Stations

Nearby Weather Stations

Station Location Temp. Windchill Dew Point Humidity Wind Precip. Elev Updated Type
                   

Watches & Warnings

There are currently no watches in effect.